createdAt,value
2018-11-14T08:36:45.638Z,102650.55
2018-11-14T08:42:13.854Z,102654.66
2018-11-14T09:24:26.379Z,102631.30
2018-11-14T09:29:51.415Z,102648.42
2018-11-14T09:35:02.270Z,102645.64
2018-11-14T09:50:54.790Z,102653.17
2018-11-14T09:56:17.617Z,102649.12
2018-11-14T10:01:44.113Z,102634.41
2018-11-14T10:06:56.195Z,102642.49
2018-11-14T10:12:20.298Z,102631.84
2018-11-14T10:17:43.034Z,102628.83
2018-11-14T10:23:03.089Z,102638.42
2018-11-14T10:28:02.888Z,102636.16
2018-11-14T10:33:25.574Z,102638.28
2018-11-14T10:38:22.167Z,102631.50
2018-11-14T10:43:21.147Z,102619.89
2018-11-14T10:48:21.344Z,102613.28
2018-11-14T10:53:24.438Z,102608.28
2018-11-14T10:58:29.012Z,102600.40
2018-11-14T11:03:23.910Z,102592.39
2018-11-14T11:08:24.931Z,102578.48
2018-11-14T11:13:27.769Z,102574.89
2018-11-14T11:18:22.871Z,102558.62
2018-11-14T11:23:28.776Z,102567.77
2018-11-14T11:29:01.520Z,102555.45
2018-11-14T11:34:05.511Z,102558.64
2018-11-14T11:39:22.219Z,102539.87
2018-11-14T11:44:22.458Z,102536.28
2018-11-14T11:49:23.800Z,102530.53
2018-11-14T11:54:29.348Z,102533.80
2018-11-14T11:59:43.770Z,102533.95
2018-11-14T12:04:48.894Z,102513.98
2018-11-14T12:09:44.836Z,102516.84
2018-11-14T12:14:49.358Z,102523.33
2018-11-14T12:19:55.664Z,102527.44
2018-11-14T12:24:48.194Z,102527.71
2018-11-14T12:29:48.919Z,102520.38
2018-11-14T12:40:38.683Z,102516.27
2018-11-14T12:45:37.723Z,102507.81
2018-11-14T12:50:33.188Z,102506.30
2018-11-14T12:55:25.597Z,102508.26
2018-11-14T13:00:20.114Z,102508.13
2018-11-14T16:06:59.398Z,102415.05
2018-11-14T16:12:13.438Z,102402.10
2018-11-14T16:17:39.599Z,102405.81
2018-11-14T16:22:58.929Z,102403.57
2018-11-14T17:32:32.357Z,102395.70
2018-11-14T17:53:59.521Z,102394.54
2018-11-14T18:25:25.232Z,102372.02
2018-11-14T18:41:09.363Z,102363.97
2018-11-14T19:17:56.836Z,102365.81
2018-11-14T19:23:07.346Z,102364.23
